createdAt,value
2022-09-24T00:01:51.658Z,1.58
2022-09-24T00:04:20.171Z,1.10
2022-09-24T00:06:49.222Z,1.17
2022-09-24T00:09:21.774Z,0.95
2022-09-24T00:11:51.414Z,1.60
2022-09-24T00:14:19.851Z,1.20
2022-09-24T00:16:47.964Z,1.30
2022-09-24T00:19:16.271Z,1.42
2022-09-24T00:21:44.670Z,1.50
2022-09-24T00:24:36.984Z,1.45
2022-09-24T00:27:06.402Z,1.58
2022-09-24T00:29:35.646Z,1.23
2022-09-24T00:32:05.316Z,1.60
2022-09-24T00:34:33.362Z,1.77
2022-09-24T00:37:01.247Z,1.48
2022-09-24T00:39:29.411Z,1.05
2022-09-24T00:41:57.498Z,1.52
2022-09-24T00:44:57.677Z,1.27
2022-09-24T00:47:35.844Z,2.13
2022-09-24T00:50:17.476Z,1.48
2022-09-24T00:52:51.005Z,1.42
2022-09-24T00:55:21.076Z,1.33
2022-09-24T00:57:52.045Z,1.60
2022-09-24T01:00:21.982Z,1.27
2022-09-24T01:02:54.821Z,1.70
2022-09-24T01:05:22.620Z,1.73
2022-09-24T01:07:50.553Z,1.60
2022-09-24T01:10:36.060Z,1.65
2022-09-24T01:13:13.570Z,1.33
2022-09-24T01:15:48.149Z,1.40
2022-09-24T01:18:22.973Z,1.30
2022-09-24T01:21:02.808Z,1.30
2022-09-24T01:23:57.085Z,1.65
2022-09-24T01:26:39.448Z,1.40
2022-09-24T01:29:32.238Z,1.35
2022-09-24T01:32:05.964Z,2.00
2022-09-24T01:34:40.048Z,1.50
2022-09-24T01:37:08.196Z,1.27
2022-09-24T01:39:38.747Z,1.25
2022-09-24T01:42:07.880Z,1.55
2022-09-24T01:44:38.766Z,1.40
2022-09-24T01:47:09.135Z,1.08
2022-09-24T01:49:37.019Z,1.65
2022-09-24T01:52:11.591Z,1.58
2022-09-24T01:54:43.480Z,1.67
2022-09-24T01:57:16.538Z,1.25
2022-09-24T01:59:50.111Z,1.67
2022-09-24T02:02:27.629Z,1.48
2022-09-24T02:05:00.651Z,1.83
2022-09-24T02:07:33.428Z,1.55
2022-09-24T02:10:01.357Z,1.50
2022-09-24T02:12:34.155Z,1.38
2022-09-24T02:15:09.355Z,1.90
2022-09-24T02:17:39.475Z,1.52
2022-09-24T02:20:13.944Z,1.45
2022-09-24T02:22:43.209Z,1.55
2022-09-24T02:25:15.302Z,1.33
2022-09-24T02:27:43.178Z,1.70
2022-09-24T02:30:13.031Z,1.58
2022-09-24T02:32:42.538Z,1.60
2022-09-24T02:35:12.070Z,1.50
2022-09-24T02:37:42.376Z,1.85
2022-09-24T02:40:12.677Z,1.60
2022-09-24T02:42:41.125Z,1.58
2022-09-24T02:45:10.050Z,1.55
2022-09-24T02:47:39.306Z,1.70
2022-09-24T02:50:08.266Z,1.58
2022-09-24T02:52:36.089Z,1.48
2022-09-24T02:55:04.010Z,1.52
2022-09-24T02:57:31.836Z,1.65
2022-09-24T02:59:59.629Z,1.95
2022-09-24T03:02:27.502Z,1.42
2022-09-24T03:04:56.825Z,1.60
2022-09-24T03:07:24.713Z,1.70
2022-09-24T03:09:52.518Z,1.70
2022-09-24T03:12:20.293Z,1.70
2022-09-24T03:14:48.109Z,1.60
2022-09-24T03:17:16.006Z,1.67
2022-09-24T03:19:43.803Z,1.80
2022-09-24T03:22:12.970Z,1.48
2022-09-24T03:24:40.754Z,1.77
2022-09-24T03:27:08.555Z,1.83
2022-09-24T03:29:53.679Z,1.52
2022-09-24T03:32:21.514Z,1.88
2022-09-24T03:34:49.346Z,1.20
2022-09-24T03:37:18.510Z,2.03
2022-09-24T03:39:46.363Z,1.77
2022-09-24T03:42:14.156Z,1.60
2022-09-24T03:44:41.934Z,2.03
2022-09-24T03:47:10.026Z,1.67
2022-09-24T03:49:37.976Z,1.38
2022-09-24T03:52:05.743Z,1.30
2022-09-24T03:54:34.899Z,1.58
2022-09-24T03:57:02.731Z,1.50
2022-09-24T03:59:30.556Z,1.55
2022-09-24T04:01:58.414Z,1.60
2022-09-24T04:04:26.284Z,1.77
2022-09-24T04:06:54.040Z,2.28
2022-09-24T04:09:21.840Z,1.63
2022-09-24T04:11:52.705Z,1.75
2022-09-24T04:14:20.691Z,1.55
2022-09-24T04:16:48.495Z,1.55
2022-09-24T04:19:16.683Z,1.65
2022-09-24T04:21:44.834Z,1.60
2022-09-24T04:24:12.935Z,1.30
2022-09-24T04:26:40.830Z,1.60
2022-09-24T04:29:09.953Z,1.70
2022-09-24T04:31:38.478Z,1.85
2022-09-24T04:34:06.329Z,1.40
2022-09-24T04:36:34.180Z,1.40
2022-09-24T04:39:03.279Z,1.30
2022-09-24T04:41:31.095Z,1.67
2022-09-24T04:43:59.342Z,1.25
2022-09-24T04:46:28.507Z,1.63
2022-09-24T04:48:57.447Z,1.60
2022-09-24T04:51:25.208Z,1.42
2022-09-24T04:53:53.191Z,1.95
2022-09-24T04:56:20.987Z,1.58
2022-09-24T04:58:51.785Z,1.52
2022-09-24T05:01:20.300Z,1.58
2022-09-24T05:03:49.730Z,1.52
2022-09-24T05:06:17.553Z,1.50
2022-09-24T05:08:45.336Z,1.08
2022-09-24T05:11:13.549Z,1.40
2022-09-24T05:13:41.314Z,2.15
2022-09-24T05:16:09.396Z,1.75
2022-09-24T05:18:37.223Z,1.83
2022-09-24T05:21:06.902Z,1.60
2022-09-24T05:23:34.906Z,1.60
2022-09-24T05:26:20.388Z,1.65
2022-09-24T05:28:48.194Z,1.65
2022-09-24T05:31:17.230Z,1.67
2022-09-24T05:33:46.133Z,1.67
2022-09-24T05:36:16.007Z,1.77
2022-09-24T05:38:43.821Z,1.70
2022-09-24T05:41:11.731Z,1.40
2022-09-24T05:43:39.520Z,1.63
2022-09-24T05:46:07.963Z,1.60
2022-09-24T05:48:35.964Z,2.00
2022-09-24T05:51:03.950Z,1.90
2022-09-24T05:53:33.813Z,2.00
2022-09-24T05:56:01.995Z,1.67
2022-09-24T05:58:29.787Z,1.50
2022-09-24T06:00:59.928Z,1.52
2022-09-24T06:03:29.527Z,2.17
2022-09-24T06:05:59.567Z,2.08
2022-09-24T06:08:27.351Z,1.60
2022-09-24T06:11:00.218Z,1.52
2022-09-24T06:13:28.034Z,1.70
2022-09-24T06:16:01.647Z,2.25
2022-09-24T06:18:29.638Z,1.40
2022-09-24T06:21:01.310Z,1.90
2022-09-24T06:23:29.171Z,1.75
2022-09-24T06:25:58.380Z,1.85
2022-09-24T06:28:26.296Z,1.70
2022-09-24T06:30:54.700Z,2.28
2022-09-24T06:33:23.341Z,1.63
2022-09-24T06:35:51.106Z,1.70
2022-09-24T06:38:20.237Z,1.42
2022-09-24T06:40:49.282Z,1.92
2022-09-24T06:43:18.749Z,2.17
2022-09-24T06:45:46.671Z,1.33
2022-09-24T06:48:15.397Z,1.90
2022-09-24T06:50:45.345Z,1.75
2022-09-24T06:53:13.531Z,1.95
2022-09-24T06:55:42.163Z,1.63
2022-09-24T06:58:12.670Z,2.08
2022-09-24T07:00:42.924Z,1.75
2022-09-24T07:03:15.018Z,1.93
2022-09-24T07:05:43.980Z,2.28
2022-09-24T07:08:12.124Z,1.50
2022-09-24T07:10:43.543Z,1.75
2022-09-24T07:13:12.336Z,2.03
2022-09-24T07:15:41.795Z,2.20
2022-09-24T07:18:10.262Z,2.08
2022-09-24T07:20:38.125Z,2.00
2022-09-24T07:23:09.097Z,1.85
2022-09-24T07:25:37.980Z,2.03
2022-09-24T07:28:07.438Z,1.92
2022-09-24T07:30:36.028Z,1.92
2022-09-24T07:33:07.311Z,1.65
2022-09-24T07:38:05.013Z,1.80
2022-09-24T07:40:33.685Z,1.92
2022-09-24T07:43:01.783Z,2.10
2022-09-24T07:45:30.936Z,1.85
2022-09-24T07:48:00.078Z,1.92
2022-09-24T07:50:30.801Z,2.28
2022-09-24T07:52:58.523Z,2.42
2022-09-24T07:55:26.761Z,2.30
2022-09-24T07:57:56.232Z,2.08
2022-09-24T08:00:25.503Z,2.70
2022-09-24T08:02:56.217Z,2.53
2022-09-24T08:05:23.978Z,2.72
2022-09-24T08:07:57.719Z,2.40
2022-09-24T08:10:26.972Z,2.20
2022-09-24T08:12:56.825Z,2.60
2022-09-24T08:15:24.909Z,2.60
2022-09-24T08:17:52.991Z,2.65
2022-09-24T08:20:23.312Z,2.08
2022-09-24T08:22:51.127Z,2.27
2022-09-24T08:25:20.281Z,1.88
2022-09-24T08:27:48.113Z,2.17
2022-09-24T08:30:15.961Z,1.95
2022-09-24T08:32:47.778Z,2.63
2022-09-24T08:35:16.314Z,3.17
2022-09-24T08:37:44.055Z,2.65
2022-09-24T08:40:18.694Z,2.33
2022-09-24T08:42:57.535Z,2.35
2022-09-24T08:45:42.848Z,2.60
2022-09-24T08:48:15.262Z,3.08
2022-09-24T08:50:49.577Z,2.53
2022-09-24T08:53:20.993Z,2.22
2022-09-24T08:55:50.859Z,3.40
2022-09-24T08:58:32.464Z,1.98
2022-09-24T09:01:07.640Z,3.05
2022-09-24T09:03:42.216Z,2.40
2022-09-24T09:06:18.439Z,2.28
2022-09-24T09:09:12.095Z,2.90
2022-09-24T09:11:43.017Z,2.35
2022-09-24T09:14:17.493Z,2.78
2022-09-24T09:16:50.305Z,2.50
2022-09-24T09:19:20.074Z,2.60
2022-09-24T09:21:53.591Z,2.47
2022-09-24T09:24:24.794Z,2.28
2022-09-24T09:29:26.192Z,1.95
2022-09-24T09:32:06.223Z,2.55
2022-09-24T09:34:49.824Z,2.55
2022-09-24T09:37:28.147Z,1.95
2022-09-24T09:40:05.166Z,2.50
2022-09-24T09:42:36.165Z,2.17
2022-09-24T09:45:25.453Z,1.63
2022-09-24T09:50:29.307Z,1.88
2022-09-24T09:52:57.384Z,1.83
2022-09-24T09:55:27.642Z,1.65
2022-09-24T09:58:08.937Z,1.33
2022-09-24T10:03:06.355Z,1.60
2022-09-24T10:05:34.620Z,2.53
2022-09-24T10:08:02.531Z,2.08
2022-09-24T10:10:30.469Z,2.78
2022-09-24T10:13:09.752Z,2.35
2022-09-24T10:15:50.418Z,2.03
2022-09-24T10:18:19.440Z,1.85
2022-09-24T10:20:49.525Z,1.55
2022-09-24T10:23:22.240Z,1.73
2022-09-24T10:25:57.447Z,1.77
2022-09-24T10:28:43.610Z,1.55
2022-09-24T10:31:17.705Z,1.70
2022-09-24T10:33:48.352Z,2.05
2022-09-24T10:36:17.786Z,2.15
2022-09-24T10:38:45.614Z,2.40
2022-09-24T10:41:18.217Z,2.47
2022-09-24T10:43:52.608Z,1.88
2022-09-24T10:46:37.014Z,2.25
2022-09-24T10:49:11.808Z,2.00
2022-09-24T10:51:47.431Z,1.60
2022-09-24T10:54:39.137Z,1.65
2022-09-24T10:57:19.398Z,1.60
2022-09-24T10:59:56.951Z,1.67
2022-09-24T11:02:55.115Z,1.27
2022-09-24T11:05:24.756Z,1.27
2022-09-24T11:08:05.419Z,1.58
2022-09-24T11:11:00.008Z,1.38
2022-09-24T11:13:42.710Z,2.05
2022-09-24T11:16:39.672Z,2.50
2022-09-24T11:19:20.355Z,1.63
2022-09-24T11:22:02.842Z,1.98
2022-09-24T11:24:57.077Z,2.08
2022-09-24T11:27:40.083Z,1.25
2022-09-24T11:30:13.071Z,1.60
2022-09-24T11:32:52.286Z,1.38
2022-09-24T11:35:43.738Z,1.70
2022-09-24T11:41:06.448Z,1.50
2022-09-24T11:43:55.138Z,1.95
2022-09-24T11:46:34.253Z,1.85
2022-09-24T11:49:35.663Z,1.90
2022-09-24T11:52:11.326Z,2.03
2022-09-24T11:54:45.460Z,1.60
2022-09-24T11:57:17.541Z,1.80
2022-09-24T11:59:51.380Z,2.10
2022-09-24T12:02:25.047Z,2.13
2022-09-24T12:04:59.032Z,1.88
2022-09-24T12:07:35.418Z,1.70
2022-09-24T12:10:08.342Z,1.55
2022-09-24T12:12:42.102Z,1.85
2022-09-24T12:15:19.382Z,1.50
2022-09-24T12:17:52.271Z,1.55
2022-09-24T12:20:24.144Z,1.58
2022-09-24T12:23:00.015Z,1.42
2022-09-24T12:25:30.385Z,1.80
2022-09-24T12:28:00.130Z,1.70
2022-09-24T12:30:53.351Z,1.38
2022-09-24T12:33:30.302Z,1.45
2022-09-24T12:36:10.361Z,1.80
2022-09-24T12:38:44.442Z,1.40
2022-09-24T12:41:26.480Z,1.38
2022-09-24T12:44:00.676Z,1.58
2022-09-24T12:46:32.432Z,1.50
2022-09-24T12:49:00.961Z,1.30
2022-09-24T12:51:37.539Z,1.60
2022-09-24T12:54:24.310Z,1.58
2022-09-24T12:56:52.112Z,1.20
2022-09-24T12:59:27.347Z,1.27
2022-09-24T13:01:55.450Z,1.48
2022-09-24T13:04:29.075Z,1.67
2022-09-24T13:06:57.072Z,1.23
2022-09-24T13:09:35.454Z,1.30
2022-09-24T13:12:06.651Z,0.85
2022-09-24T13:17:07.764Z,0.75
2022-09-24T13:19:40.817Z,1.40
2022-09-24T13:22:22.492Z,1.10
2022-09-24T13:24:53.649Z,1.38
2022-09-24T13:30:04.711Z,1.20
2022-09-24T13:32:37.085Z,1.58
2022-09-24T13:35:11.201Z,1.50
2022-09-24T13:37:44.052Z,1.23
2022-09-24T13:40:21.328Z,1.00
2022-09-24T13:42:55.697Z,1.27
2022-09-24T13:45:27.370Z,1.10
2022-09-24T13:47:58.470Z,1.33
2022-09-24T13:50:29.904Z,1.20
2022-09-24T13:53:00.862Z,1.10
2022-09-24T13:55:34.194Z,1.15
2022-09-24T13:58:02.278Z,1.05
2022-09-24T14:00:32.143Z,1.20
2022-09-24T14:03:03.338Z,1.48
2022-09-24T14:05:35.911Z,0.95
2022-09-24T14:10:35.848Z,1.00
2022-09-24T14:13:11.475Z,1.20
2022-09-24T14:15:39.262Z,1.10
2022-09-24T14:18:12.719Z,1.42
2022-09-24T14:20:40.878Z,1.08
2022-09-24T14:23:16.736Z,1.00
2022-09-24T14:25:48.445Z,1.00
2022-09-24T14:28:16.890Z,1.05
2022-09-24T14:30:51.595Z,1.15
2022-09-24T14:33:25.236Z,0.73
2022-09-24T14:35:54.856Z,0.85
2022-09-24T14:38:26.639Z,0.80
2022-09-24T14:40:59.643Z,1.63
2022-09-24T14:43:33.048Z,0.73
2022-09-24T14:46:07.290Z,1.00
2022-09-24T14:48:35.751Z,0.90
2022-09-24T14:51:03.852Z,1.00
2022-09-24T14:53:34.528Z,0.75
2022-09-24T14:56:19.606Z,1.08
2022-09-24T14:58:48.740Z,0.88
2022-09-24T15:01:19.283Z,1.00
2022-09-24T15:03:50.956Z,0.98
2022-09-24T15:06:22.219Z,0.85
2022-09-24T15:08:57.383Z,0.68
2022-09-24T15:11:28.686Z,0.90
2022-09-24T15:14:01.832Z,1.10
2022-09-24T15:16:31.810Z,0.77
2022-09-24T15:19:14.123Z,0.90
2022-09-24T15:21:42.005Z,1.23
2022-09-24T15:24:09.925Z,1.08
2022-09-24T15:26:42.660Z,0.93
2022-09-24T15:29:18.475Z,0.98
2022-09-24T15:31:46.298Z,1.02
2022-09-24T15:34:17.777Z,1.00
2022-09-24T15:36:48.088Z,0.98
2022-09-24T15:39:19.051Z,0.98
2022-09-24T15:41:48.143Z,0.95
2022-09-24T15:44:22.846Z,0.90
2022-09-24T15:46:51.457Z,0.95
2022-09-24T15:49:21.806Z,0.95
2022-09-24T15:51:51.188Z,1.05
2022-09-24T15:54:19.102Z,0.88
2022-09-24T15:56:52.165Z,1.13
2022-09-24T15:59:20.994Z,1.17
2022-09-24T16:01:52.152Z,1.00
2022-09-24T16:04:20.150Z,1.08
2022-09-24T16:06:47.946Z,1.00
2022-09-24T16:09:15.677Z,1.15
2022-09-24T16:11:43.469Z,1.08
2022-09-24T16:14:12.568Z,1.08
2022-09-24T16:16:40.402Z,1.00
2022-09-24T16:19:08.455Z,1.15
2022-09-24T16:21:36.400Z,1.17
2022-09-24T16:24:04.391Z,1.02
2022-09-24T16:26:32.441Z,0.95
2022-09-24T16:29:04.714Z,0.95
2022-09-24T16:31:34.288Z,1.00
2022-09-24T16:34:02.269Z,1.10
2022-09-24T16:36:30.073Z,0.93
2022-09-24T16:38:58.442Z,0.70
2022-09-24T16:41:26.403Z,0.90
2022-09-24T16:43:56.635Z,0.88
2022-09-24T16:46:24.718Z,1.20
2022-09-24T16:48:54.154Z,1.30
2022-09-24T16:51:22.241Z,1.08
2022-09-24T16:53:54.154Z,1.25
2022-09-24T16:56:22.492Z,1.00
2022-09-24T16:58:50.762Z,1.42
2022-09-24T17:01:21.711Z,1.00
2022-09-24T17:03:53.836Z,0.90
2022-09-24T17:06:23.206Z,1.10
2022-09-24T17:09:08.841Z,1.17
2022-09-24T17:11:36.974Z,1.02
2022-09-24T17:14:06.003Z,1.13
2022-09-24T17:16:34.560Z,1.17
2022-09-24T17:19:03.826Z,1.30
2022-09-24T17:21:31.852Z,1.48
2022-09-24T17:24:00.900Z,1.40
2022-09-24T17:26:28.774Z,1.10
2022-09-24T17:28:56.571Z,1.17
2022-09-24T17:31:26.283Z,1.23
2022-09-24T17:33:57.092Z,1.42
2022-09-24T17:36:27.455Z,1.13
2022-09-24T17:38:56.133Z,1.60
2022-09-24T17:41:24.491Z,1.27
2022-09-24T17:43:53.111Z,1.50
2022-09-24T17:46:22.741Z,1.40
2022-09-24T17:48:52.368Z,1.10
2022-09-24T17:51:22.005Z,1.00
2022-09-24T17:53:52.996Z,1.08
2022-09-24T17:56:22.647Z,1.40
2022-09-24T17:58:52.101Z,1.30
2022-09-24T18:01:22.264Z,1.17
2022-09-24T18:03:53.984Z,1.43
2022-09-24T18:06:25.060Z,1.60
2022-09-24T18:08:56.900Z,1.52
2022-09-24T18:11:26.299Z,1.30
2022-09-24T18:13:55.646Z,1.35
2022-09-24T18:16:25.428Z,1.35
2022-09-24T18:18:53.541Z,1.63
2022-09-24T18:21:23.303Z,1.08
2022-09-24T18:23:54.421Z,1.55
2022-09-24T18:28:52.968Z,1.38
2022-09-24T18:31:22.731Z,1.20
2022-09-24T18:33:53.116Z,1.90
2022-09-24T18:36:22.464Z,1.67
2022-09-24T18:38:50.535Z,1.50
2022-09-24T18:41:21.266Z,1.63
2022-09-24T18:43:51.229Z,1.83
2022-09-24T18:46:21.247Z,1.60
2022-09-24T18:48:50.970Z,1.65
2022-09-24T18:51:20.367Z,1.77
2022-09-24T18:53:53.024Z,1.55
2022-09-24T18:56:21.245Z,1.65
2022-09-24T18:58:55.010Z,1.63
2022-09-24T19:01:23.307Z,2.00
2022-09-24T19:03:51.213Z,1.75
2022-09-24T19:06:19.083Z,1.85
2022-09-24T19:08:47.016Z,1.88
2022-09-24T19:11:16.204Z,1.45
2022-09-24T19:13:48.070Z,1.80
2022-09-24T19:16:19.148Z,1.65
2022-09-24T19:21:15.520Z,1.00
2022-09-24T19:23:45.769Z,1.00
2022-09-24T19:26:15.901Z,0.83
2022-09-24T19:28:45.153Z,0.98
2022-09-24T19:31:21.863Z,0.70
2022-09-24T19:33:50.890Z,0.90
2022-09-24T19:36:19.266Z,0.70
2022-09-24T19:38:47.461Z,1.25
2022-09-24T19:41:18.298Z,1.25
2022-09-24T19:43:46.514Z,1.25
2022-09-24T19:46:17.923Z,1.00
2022-09-24T19:48:47.404Z,1.15
2022-09-24T19:51:16.753Z,1.00
2022-09-24T19:53:47.623Z,1.10
2022-09-24T19:56:16.495Z,1.27
2022-09-24T19:58:46.450Z,1.10
2022-09-24T20:01:17.303Z,1.33
2022-09-24T20:03:47.386Z,0.80
2022-09-24T20:06:16.579Z,1.05
2022-09-24T20:08:45.167Z,1.08
2022-09-24T20:11:17.037Z,1.15
2022-09-24T20:13:46.280Z,0.82
2022-09-24T20:16:16.165Z,1.10
2022-09-24T20:18:44.155Z,1.00
2022-09-24T20:21:13.447Z,0.80
2022-09-24T20:23:41.281Z,1.13
2022-09-24T20:26:28.498Z,1.13
2022-09-24T20:28:56.349Z,0.80
2022-09-24T20:31:24.953Z,1.33
2022-09-24T20:33:52.838Z,1.00
2022-09-24T20:36:24.700Z,1.05
2022-09-24T20:38:53.480Z,1.02
2022-09-24T20:41:23.622Z,0.95
2022-09-24T20:43:51.828Z,0.90
2022-09-24T20:46:21.739Z,0.90
2022-09-24T20:48:49.821Z,1.10
2022-09-24T20:51:19.971Z,0.85
2022-09-24T20:53:50.299Z,1.13
2022-09-24T20:56:19.509Z,1.13
2022-09-24T20:58:50.466Z,1.25
2022-09-24T21:01:18.526Z,0.82
2022-09-24T21:03:47.587Z,1.20
2022-09-24T21:06:16.523Z,1.10
2022-09-24T21:08:47.201Z,0.95
2022-09-24T21:11:18.933Z,1.23
2022-09-24T21:13:49.871Z,1.23
2022-09-24T21:16:20.522Z,1.20
2022-09-24T21:18:49.615Z,1.17
2022-09-24T21:21:19.218Z,1.15
2022-09-24T21:23:48.717Z,1.33
2022-09-24T21:26:20.412Z,1.60
2022-09-24T21:28:49.527Z,1.60
2022-09-24T21:31:19.455Z,1.50
2022-09-24T21:33:48.825Z,1.30
2022-09-24T21:36:18.528Z,1.45
2022-09-24T21:38:46.969Z,1.48
2022-09-24T21:41:14.733Z,1.40
2022-09-24T21:43:43.813Z,1.42
2022-09-24T21:46:11.611Z,1.88
2022-09-24T21:48:39.407Z,1.48
2022-09-24T21:51:09.047Z,1.60
2022-09-24T21:53:37.738Z,1.52
2022-09-24T21:56:06.189Z,1.60
2022-09-24T21:58:34.089Z,1.10
2022-09-24T22:01:05.336Z,1.50
2022-09-24T22:03:33.245Z,1.20
2022-09-24T22:06:04.168Z,1.25
2022-09-24T22:08:32.094Z,1.10
2022-09-24T22:11:04.714Z,1.13
2022-09-24T22:13:33.643Z,1.63
2022-09-24T22:16:03.708Z,1.42
2022-09-24T22:18:31.807Z,1.58
2022-09-24T22:20:59.519Z,1.58
2022-09-24T22:23:27.642Z,1.10
2022-09-24T22:25:56.440Z,1.13
2022-09-24T22:28:25.309Z,1.17
2022-09-24T22:30:53.603Z,1.42
2022-09-24T22:33:41.194Z,1.50
2022-09-24T22:36:09.274Z,1.17
2022-09-24T22:38:37.465Z,0.93
2022-09-24T22:41:08.094Z,1.17
2022-09-24T22:43:36.035Z,1.40
2022-09-24T22:46:06.080Z,1.45
2022-09-24T22:48:36.214Z,1.10
2022-09-24T22:51:04.963Z,1.55
2022-09-24T22:53:34.289Z,1.50
2022-09-24T22:56:06.524Z,1.27
2022-09-24T22:58:34.931Z,1.77
2022-09-24T23:01:09.358Z,1.48
2022-09-24T23:03:39.329Z,1.55
2022-09-24T23:06:08.690Z,1.13
2022-09-24T23:08:37.691Z,1.40
2022-09-24T23:11:07.986Z,1.38
2022-09-24T23:13:36.249Z,1.10
2022-09-24T23:16:08.857Z,1.17
2022-09-24T23:18:38.125Z,1.55
2022-09-24T23:21:07.098Z,1.30
2022-09-24T23:23:35.077Z,1.38
2022-09-24T23:26:04.900Z,1.65
2022-09-24T23:28:33.733Z,1.33
2022-09-24T23:31:02.442Z,1.35
2022-09-24T23:33:33.040Z,1.67
2022-09-24T23:36:03.197Z,1.83
2022-09-24T23:38:31.259Z,1.58
2022-09-24T23:41:00.721Z,1.30
2022-09-24T23:43:29.090Z,1.60
2022-09-24T23:45:57.146Z,1.98
2022-09-24T23:48:25.734Z,1.52
2022-09-24T23:50:53.721Z,1.60
2022-09-24T23:53:23.250Z,1.20
2022-09-24T23:55:51.800Z,1.42
2022-09-24T23:58:21.314Z,1.45
